sensor_id;sensor_type;location;lat;lon;timestamp;temperature;humidity
21001;DHT22;10658;50.920;12.238;2023-02-12T00:00:11;5.40;99.90
21001;DHT22;10658;50.920;12.238;2023-02-12T00:04:33;5.40;99.90
21001;DHT22;10658;50.920;12.238;2023-02-12T00:08:35;5.40;99.90
21001;DHT22;10658;50.920;12.238;2023-02-12T00:12:36;5.40;99.90
21001;DHT22;10658;50.920;12.238;2023-02-12T00:16:37;5.40;99.90
21001;DHT22;10658;50.920;12.238;2023-02-12T00:20:38;5.40;99.90
21001;DHT22;10658;50.920;12.238;2023-02-12T00:24:39;5.30;99.90
21001;DHT22;10658;50.920;12.238;2023-02-12T00:28:40;5.30;99.90
21001;DHT22;10658;50.920;12.238;2023-02-12T00:32:43;5.30;99.90
21001;DHT22;10658;50.920;12.238;2023-02-12T00:36:45;5.30;99.90
21001;DHT22;10658;50.920;12.238;2023-02-12T00:40:46;5.30;99.90
21001;DHT22;10658;50.920;12.238;2023-02-12T00:44:47;5.30;99.90
21001;DHT22;10658;50.920;12.238;2023-02-12T00:48:51;5.30;99.90
21001;DHT22;10658;50.920;12.238;2023-02-12T00:52:54;5.30;99.90
21001;DHT22;10658;50.920;12.238;2023-02-12T00:56:56;5.50;99.90
21001;DHT22;10658;50.920;12.238;2023-02-12T01:00:57;5.50;99.90
21001;DHT22;10658;50.920;12.238;2023-02-12T01:05:00;5.50;99.90
21001;DHT22;10658;50.920;12.238;2023-02-12T01:09:01;5.40;99.90
21001;DHT22;10658;50.920;12.238;2023-02-12T01:13:02;5.50;99.90
21001;DHT22;10658;50.920;12.238;2023-02-12T01:17:07;5.40;99.90
21001;DHT22;10658;50.920;12.238;2023-02-12T01:21:15;5.40;99.90
21001;DHT22;10658;50.920;12.238;2023-02-12T01:25:18;5.30;99.90
21001;DHT22;10658;50.920;12.238;2023-02-12T01:29:19;5.40;99.90
21001;DHT22;10658;50.920;12.238;2023-02-12T01:33:20;5.40;99.90
21001;DHT22;10658;50.920;12.238;2023-02-12T01:37:22;5.40;99.90
21001;DHT22;10658;50.920;12.238;2023-02-12T01:41:26;5.40;99.90
21001;DHT22;10658;50.920;12.238;2023-02-12T01:45:48;5.50;99.90
21001;DHT22;10658;50.920;12.238;2023-02-12T01:49:49;5.40;99.90
21001;DHT22;10658;50.920;12.238;2023-02-12T01:53:53;5.50;99.90
21001;DHT22;10658;50.920;12.238;2023-02-12T01:57:56;5.50;99.90
21001;DHT22;10658;50.920;12.238;2023-02-12T02:01:57;5.40;99.90
21001;DHT22;10658;50.920;12.238;2023-02-12T02:06:03;5.40;99.90
21001;DHT22;10658;50.920;12.238;2023-02-12T02:10:07;5.40;99.90
21001;DHT22;10658;50.920;12.238;2023-02-12T02:14:08;5.50;99.90
21001;DHT22;10658;50.920;12.238;2023-02-12T02:18:51;5.50;99.90
21001;DHT22;10658;50.920;12.238;2023-02-12T02:27:41;5.50;99.90
21001;DHT22;10658;50.920;12.238;2023-02-12T02:32:00;5.50;99.90
21001;DHT22;10658;50.920;12.238;2023-02-12T02:36:26;5.50;99.90
21001;DHT22;10658;50.920;12.238;2023-02-12T02:49:43;5.40;99.90
21001;DHT22;10658;50.920;12.238;2023-02-12T02:53:50;5.40;99.90
21001;DHT22;10658;50.920;12.238;2023-02-12T02:58:10;5.30;99.90
21001;DHT22;10658;50.920;12.238;2023-02-12T03:02:37;5.30;99.90
21001;DHT22;10658;50.920;12.238;2023-02-12T03:10:55;5.30;99.90
21001;DHT22;10658;50.920;12.238;2023-02-12T03:15:12;5.40;99.90
21001;DHT22;10658;50.920;12.238;2023-02-12T03:19:40;5.50;99.90
21001;DHT22;10658;50.920;12.238;2023-02-12T03:23:54;5.40;99.90
21001;DHT22;10658;50.920;12.238;2023-02-12T03:28:10;5.50;99.90
21001;DHT22;10658;50.920;12.238;2023-02-12T03:41:05;5.40;99.90
21001;DHT22;10658;50.920;12.238;2023-02-12T03:45:13;5.40;99.90
21001;DHT22;10658;50.920;12.238;2023-02-12T03:49:38;5.40;99.90
21001;DHT22;10658;50.920;12.238;2023-02-12T03:53:45;5.30;99.90
21001;DHT22;10658;50.920;12.238;2023-02-12T03:57:52;5.30;99.90
21001;DHT22;10658;50.920;12.238;2023-02-12T04:01:58;5.40;99.90
21001;DHT22;10658;50.920;12.238;2023-02-12T04:06:00;5.40;99.90
21001;DHT22;10658;50.920;12.238;2023-02-12T04:10:02;5.30;99.90
21001;DHT22;10658;50.920;12.238;2023-02-12T04:14:31;5.30;99.90
21001;DHT22;10658;50.920;12.238;2023-02-12T04:18:47;5.20;99.90
21001;DHT22;10658;50.920;12.238;2023-02-12T04:27:10;5.20;99.90
21001;DHT22;10658;50.920;12.238;2023-02-12T04:35:55;5.20;99.90
21001;DHT22;10658;50.920;12.238;2023-02-12T04:40:07;5.20;99.90
21001;DHT22;10658;50.920;12.238;2023-02-12T04:44:30;5.20;99.90
21001;DHT22;10658;50.920;12.238;2023-02-12T04:48:35;5.10;99.90
21001;DHT22;10658;50.920;12.238;2023-02-12T04:52:37;5.10;99.90
21001;DHT22;10658;50.920;12.238;2023-02-12T04:56:38;5.00;99.90
21001;DHT22;10658;50.920;12.238;2023-02-12T05:00:39;5.00;99.90
21001;DHT22;10658;50.920;12.238;2023-02-12T05:04:40;4.90;99.90
21001;DHT22;10658;50.920;12.238;2023-02-12T05:08:41;5.00;99.90
21001;DHT22;10658;50.920;12.238;2023-02-12T05:12:42;5.00;99.90
21001;DHT22;10658;50.920;12.238;2023-02-12T05:16:44;4.90;99.90
21001;DHT22;10658;50.920;12.238;2023-02-12T05:20:45;4.90;99.90
21001;DHT22;10658;50.920;12.238;2023-02-12T05:24:54;4.90;99.90
21001;DHT22;10658;50.920;12.238;2023-02-12T05:28:55;4.90;99.90
21001;DHT22;10658;50.920;12.238;2023-02-12T05:32:56;4.90;99.90
21001;DHT22;10658;50.920;12.238;2023-02-12T05:36:57;5.00;99.90
21001;DHT22;10658;50.920;12.238;2023-02-12T05:41:07;5.10;99.90
21001;DHT22;10658;50.920;12.238;2023-02-12T05:45:08;5.10;99.90
21001;DHT22;10658;50.920;12.238;2023-02-12T05:49:10;5.10;99.90
21001;DHT22;10658;50.920;12.238;2023-02-12T05:53:12;5.10;99.90
21001;DHT22;10658;50.920;12.238;2023-02-12T05:57:13;5.00;99.90
21001;DHT22;10658;50.920;12.238;2023-02-12T06:01:17;5.00;99.90
21001;DHT22;10658;50.920;12.238;2023-02-12T06:05:19;5.00;99.90
21001;DHT22;10658;50.920;12.238;2023-02-12T06:09:21;5.00;99.90
21001;DHT22;10658;50.920;12.238;2023-02-12T06:13:24;4.90;99.90
21001;DHT22;10658;50.920;12.238;2023-02-12T06:17:24;5.00;99.90
21001;DHT22;10658;50.920;12.238;2023-02-12T06:21:26;5.00;99.90
21001;DHT22;10658;50.920;12.238;2023-02-12T06:25:28;5.00;99.90
21001;DHT22;10658;50.920;12.238;2023-02-12T06:29:28;4.90;99.90
21001;DHT22;10658;50.920;12.238;2023-02-12T06:33:30;4.90;99.90
21001;DHT22;10658;50.920;12.238;2023-02-12T06:37:32;4.90;99.90
21001;DHT22;10658;50.920;12.238;2023-02-12T06:41:36;4.80;99.90
21001;DHT22;10658;50.920;12.238;2023-02-12T06:45:37;4.90;99.90
21001;DHT22;10658;50.920;12.238;2023-02-12T06:49:38;4.90;99.90
21001;DHT22;10658;50.920;12.238;2023-02-12T06:53:40;4.90;99.90
21001;DHT22;10658;50.920;12.238;2023-02-12T06:57:41;5.00;99.90
21001;DHT22;10658;50.920;12.238;2023-02-12T07:01:43;4.90;99.90
21001;DHT22;10658;50.920;12.238;2023-02-12T07:05:44;4.90;99.90
21001;DHT22;10658;50.920;12.238;2023-02-12T07:09:45;4.90;99.90
21001;DHT22;10658;50.920;12.238;2023-02-12T07:13:46;4.80;99.90
21001;DHT22;10658;50.920;12.238;2023-02-12T07:17:48;5.00;99.90
21001;DHT22;10658;50.920;12.238;2023-02-12T07:21:49;5.00;99.90
21001;DHT22;10658;50.920;12.238;2023-02-12T07:25:58;5.00;99.90
21001;DHT22;10658;50.920;12.238;2023-02-12T07:29:59;5.00;99.90
21001;DHT22;10658;50.920;12.238;2023-02-12T07:34:01;5.10;99.90
21001;DHT22;10658;50.920;12.238;2023-02-12T07:38:02;5.10;99.90
21001;DHT22;10658;50.920;12.238;2023-02-12T07:42:04;5.10;99.90
21001;DHT22;10658;50.920;12.238;2023-02-12T07:50:16;5.20;99.90
21001;DHT22;10658;50.920;12.238;2023-02-12T07:54:18;5.20;99.90
21001;DHT22;10658;50.920;12.238;2023-02-12T07:58:19;5.30;99.90
21001;DHT22;10658;50.920;12.238;2023-02-12T08:02:20;5.30;99.90
21001;DHT22;10658;50.920;12.238;2023-02-12T08:06:24;5.30;99.90
21001;DHT22;10658;50.920;12.238;2023-02-12T08:10:26;5.30;99.90
21001;DHT22;10658;50.920;12.238;2023-02-12T08:14:28;5.40;99.90
21001;DHT22;10658;50.920;12.238;2023-02-12T08:18:31;5.40;99.90
21001;DHT22;10658;50.920;12.238;2023-02-12T08:22:32;5.50;99.90
21001;DHT22;10658;50.920;12.238;2023-02-12T08:26:37;5.50;99.90
21001;DHT22;10658;50.920;12.238;2023-02-12T08:30:39;5.50;99.90
21001;DHT22;10658;50.920;12.238;2023-02-12T08:34:40;5.50;99.90
21001;DHT22;10658;50.920;12.238;2023-02-12T08:38:44;5.50;99.90
21001;DHT22;10658;50.920;12.238;2023-02-12T08:42:47;5.60;99.90
21001;DHT22;10658;50.920;12.238;2023-02-12T08:46:50;5.70;99.90
21001;DHT22;10658;50.920;12.238;2023-02-12T08:50:52;5.80;99.90
21001;DHT22;10658;50.920;12.238;2023-02-12T08:54:53;5.80;99.90
21001;DHT22;10658;50.920;12.238;2023-02-12T08:58:56;5.90;99.90
21001;DHT22;10658;50.920;12.238;2023-02-12T09:02:59;5.90;99.90
21001;DHT22;10658;50.920;12.238;2023-02-12T09:07:01;6.00;99.90
21001;DHT22;10658;50.920;12.238;2023-02-12T09:11:12;5.90;99.90
21001;DHT22;10658;50.920;12.238;2023-02-12T09:15:13;6.00;99.90
21001;DHT22;10658;50.920;12.238;2023-02-12T09:19:14;6.10;99.90
21001;DHT22;10658;50.920;12.238;2023-02-12T09:23:15;6.00;99.90
21001;DHT22;10658;50.920;12.238;2023-02-12T09:27:17;6.10;99.90
21001;DHT22;10658;50.920;12.238;2023-02-12T09:31:22;6.10;99.90
21001;DHT22;10658;50.920;12.238;2023-02-12T09:35:26;6.10;99.90
21001;DHT22;10658;50.920;12.238;2023-02-12T09:39:27;6.20;99.90
21001;DHT22;10658;50.920;12.238;2023-02-12T09:52:27;6.20;99.90
21001;DHT22;10658;50.920;12.238;2023-02-12T09:56:29;6.30;99.90
21001;DHT22;10658;50.920;12.238;2023-02-12T10:00:31;6.40;99.90
21001;DHT22;10658;50.920;12.238;2023-02-12T10:04:33;6.40;99.90
21001;DHT22;10658;50.920;12.238;2023-02-12T10:13:04;6.70;99.90
21001;DHT22;10658;50.920;12.238;2023-02-12T10:25:49;6.80;99.90
21001;DHT22;10658;50.920;12.238;2023-02-12T10:29:53;6.90;99.90
21001;DHT22;10658;50.920;12.238;2023-02-12T10:33:55;7.00;99.90
21001;DHT22;10658;50.920;12.238;2023-02-12T10:38:07;7.10;99.90
21001;DHT22;10658;50.920;12.238;2023-02-12T10:42:39;7.20;99.90
21001;DHT22;10658;50.920;12.238;2023-02-12T10:46:43;7.40;99.90
21001;DHT22;10658;50.920;12.238;2023-02-12T10:55:31;7.20;99.90
21001;DHT22;10658;50.920;12.238;2023-02-12T10:59:33;7.20;99.90
21001;DHT22;10658;50.920;12.238;2023-02-12T11:03:34;7.30;99.90
21001;DHT22;10658;50.920;12.238;2023-02-12T11:07:48;7.30;99.90
21001;DHT22;10658;50.920;12.238;2023-02-12T11:11:49;7.40;99.90
21001;DHT22;10658;50.920;12.238;2023-02-12T11:15:51;7.50;99.90
21001;DHT22;10658;50.920;12.238;2023-02-12T11:28:27;7.60;99.90
21001;DHT22;10658;50.920;12.238;2023-02-12T11:32:30;7.60;99.90
21001;DHT22;10658;50.920;12.238;2023-02-12T11:36:40;7.60;99.90
21001;DHT22;10658;50.920;12.238;2023-02-12T11:40:45;7.60;99.90
21001;DHT22;10658;50.920;12.238;2023-02-12T11:44:53;7.50;99.90
21001;DHT22;10658;50.920;12.238;2023-02-12T11:48:55;7.70;99.90
21001;DHT22;10658;50.920;12.238;2023-02-12T11:53:00;7.70;99.90
21001;DHT22;10658;50.920;12.238;2023-02-12T11:57:03;7.70;99.90
21001;DHT22;10658;50.920;12.238;2023-02-12T12:01:23;7.80;99.90
21001;DHT22;10658;50.920;12.238;2023-02-12T12:05:31;7.90;99.90
21001;DHT22;10658;50.920;12.238;2023-02-12T12:18:33;8.20;99.90
21001;DHT22;10658;50.920;12.238;2023-02-12T12:23:04;8.20;99.90
21001;DHT22;10658;50.920;12.238;2023-02-12T12:27:53;8.30;99.90
21001;DHT22;10658;50.920;12.238;2023-02-12T12:32:08;8.30;99.90
21001;DHT22;10658;50.920;12.238;2023-02-12T12:40:53;8.40;99.90
21001;DHT22;10658;50.920;12.238;2023-02-12T13:20:17;8.20;99.90
21001;DHT22;10658;50.920;12.238;2023-02-12T13:24:49;8.30;99.90
21001;DHT22;10658;50.920;12.238;2023-02-12T13:28:55;8.40;99.90
21001;DHT22;10658;50.920;12.238;2023-02-12T13:34:02;8.50;99.90
21001;DHT22;10658;50.920;12.238;2023-02-12T13:37:34;8.50;99.90
21001;DHT22;10658;50.920;12.238;2023-02-12T13:41:38;8.70;99.90
21001;DHT22;10658;50.920;12.238;2023-02-12T13:50:31;8.70;99.90
21001;DHT22;10658;50.920;12.238;2023-02-12T13:58:54;9.30;99.90
21001;DHT22;10658;50.920;12.238;2023-02-12T14:03:07;9.10;99.90
21001;DHT22;10658;50.920;12.238;2023-02-12T14:07:11;8.90;99.90
21001;DHT22;10658;50.920;12.238;2023-02-12T14:11:16;8.80;99.90
21001;DHT22;10658;50.920;12.238;2023-02-12T14:15:26;8.70;99.90
21001;DHT22;10658;50.920;12.238;2023-02-12T14:23:39;8.60;99.90
21001;DHT22;10658;50.920;12.238;2023-02-12T14:28:14;8.60;99.90
21001;DHT22;10658;50.920;12.238;2023-02-12T14:37:31;8.40;99.90
21001;DHT22;10658;50.920;12.238;2023-02-12T14:41:34;8.40;99.90
21001;DHT22;10658;50.920;12.238;2023-02-12T14:45:38;8.30;99.90
21001;DHT22;10658;50.920;12.238;2023-02-12T14:49:43;8.30;99.90
21001;DHT22;10658;50.920;12.238;2023-02-12T14:53:48;8.20;99.90
21001;DHT22;10658;50.920;12.238;2023-02-12T14:57:55;8.20;99.90
21001;DHT22;10658;50.920;12.238;2023-02-12T15:01:59;8.20;99.90
21001;DHT22;10658;50.920;12.238;2023-02-12T15:06:09;8.10;99.90
21001;DHT22;10658;50.920;12.238;2023-02-12T15:10:33;8.10;99.90
21001;DHT22;10658;50.920;12.238;2023-02-12T15:14:44;8.20;99.90
21001;DHT22;10658;50.920;12.238;2023-02-12T15:23:39;8.10;99.90
21001;DHT22;10658;50.920;12.238;2023-02-12T15:27:44;8.10;99.90
21001;DHT22;10658;50.920;12.238;2023-02-12T15:31:53;8.10;99.90
21001;DHT22;10658;50.920;12.238;2023-02-12T15:35:55;8.10;99.90
21001;DHT22;10658;50.920;12.238;2023-02-12T15:39:59;8.10;99.90
21001;DHT22;10658;50.920;12.238;2023-02-12T15:48:29;8.00;99.90
21001;DHT22;10658;50.920;12.238;2023-02-12T15:52:37;8.00;99.90
21001;DHT22;10658;50.920;12.238;2023-02-12T15:56:40;8.00;99.90
21001;DHT22;10658;50.920;12.238;2023-02-12T16:00:43;7.90;99.90
21001;DHT22;10658;50.920;12.238;2023-02-12T16:04:47;7.80;99.90
21001;DHT22;10658;50.920;12.238;2023-02-12T16:08:58;7.80;99.90
21001;DHT22;10658;50.920;12.238;2023-02-12T16:13:03;7.70;99.90
21001;DHT22;10658;50.920;12.238;2023-02-12T16:21:27;7.70;99.90
21001;DHT22;10658;50.920;12.238;2023-02-12T16:25:31;7.60;99.90
21001;DHT22;10658;50.920;12.238;2023-02-12T16:29:38;7.50;99.90
21001;DHT22;10658;50.920;12.238;2023-02-12T16:37:45;7.40;99.90
21001;DHT22;10658;50.920;12.238;2023-02-12T16:41:54;7.30;99.90
21001;DHT22;10658;50.920;12.238;2023-02-12T16:46:03;7.30;99.90
21001;DHT22;10658;50.920;12.238;2023-02-12T16:50:13;7.20;99.90
21001;DHT22;10658;50.920;12.238;2023-02-12T16:54:33;7.20;99.90
21001;DHT22;10658;50.920;12.238;2023-02-12T16:58:34;7.10;99.90
21001;DHT22;10658;50.920;12.238;2023-02-12T17:02:35;7.10;99.90
21001;DHT22;10658;50.920;12.238;2023-02-12T17:06:37;7.10;99.90
21001;DHT22;10658;50.920;12.238;2023-02-12T17:10:40;7.10;99.90
21001;DHT22;10658;50.920;12.238;2023-02-12T17:14:42;7.10;99.90
21001;DHT22;10658;50.920;12.238;2023-02-12T17:18:44;7.00;99.90
21001;DHT22;10658;50.920;12.238;2023-02-12T17:22:51;7.00;99.90
21001;DHT22;10658;50.920;12.238;2023-02-12T17:26:53;7.00;99.90
21001;DHT22;10658;50.920;12.238;2023-02-12T17:30:54;7.00;99.90
21001;DHT22;10658;50.920;12.238;2023-02-12T17:34:55;6.90;99.90
21001;DHT22;10658;50.920;12.238;2023-02-12T17:38:56;6.90;99.90
21001;DHT22;10658;50.920;12.238;2023-02-12T17:42:58;6.90;99.90
21001;DHT22;10658;50.920;12.238;2023-02-12T17:47:00;6.90;99.90
21001;DHT22;10658;50.920;12.238;2023-02-12T17:51:02;6.90;99.90
21001;DHT22;10658;50.920;12.238;2023-02-12T17:55:05;6.80;99.90
21001;DHT22;10658;50.920;12.238;2023-02-12T17:59:08;6.80;99.90
21001;DHT22;10658;50.920;12.238;2023-02-12T18:03:10;6.70;99.90
21001;DHT22;10658;50.920;12.238;2023-02-12T18:07:12;6.70;99.90
21001;DHT22;10658;50.920;12.238;2023-02-12T18:11:15;6.70;99.90
21001;DHT22;10658;50.920;12.238;2023-02-12T18:15:18;6.70;99.90
21001;DHT22;10658;50.920;12.238;2023-02-12T18:19:41;6.70;99.90
21001;DHT22;10658;50.920;12.238;2023-02-12T18:23:46;6.60;99.90
21001;DHT22;10658;50.920;12.238;2023-02-12T18:27:48;6.60;99.90
21001;DHT22;10658;50.920;12.238;2023-02-12T18:31:53;6.60;99.90
21001;DHT22;10658;50.920;12.238;2023-02-12T18:36:01;6.60;99.90
21001;DHT22;10658;50.920;12.238;2023-02-12T18:40:03;6.60;99.90
21001;DHT22;10658;50.920;12.238;2023-02-12T18:44:32;6.50;99.90
21001;DHT22;10658;50.920;12.238;2023-02-12T18:48:48;6.50;99.90
21001;DHT22;10658;50.920;12.238;2023-02-12T18:52:49;6.50;99.90
21001;DHT22;10658;50.920;12.238;2023-02-12T18:56:51;6.40;99.90
21001;DHT22;10658;50.920;12.238;2023-02-12T19:00:52;6.40;99.90
21001;DHT22;10658;50.920;12.238;2023-02-12T19:04:54;6.50;99.90
21001;DHT22;10658;50.920;12.238;2023-02-12T19:08:59;6.50;99.90
21001;DHT22;10658;50.920;12.238;2023-02-12T19:13:00;6.40;99.90
21001;DHT22;10658;50.920;12.238;2023-02-12T19:17:01;6.40;99.90
21001;DHT22;10658;50.920;12.238;2023-02-12T19:21:07;6.40;99.90
21001;DHT22;10658;50.920;12.238;2023-02-12T19:25:08;6.30;99.90
21001;DHT22;10658;50.920;12.238;2023-02-12T19:29:12;6.30;99.90
21001;DHT22;10658;50.920;12.238;2023-02-12T19:33:13;6.20;99.90
21001;DHT22;10658;50.920;12.238;2023-02-12T19:37:14;6.30;99.90
21001;DHT22;10658;50.920;12.238;2023-02-12T19:41:20;6.20;99.90
21001;DHT22;10658;50.920;12.238;2023-02-12T19:45:21;6.20;99.90
21001;DHT22;10658;50.920;12.238;2023-02-12T19:49:25;6.20;99.90
21001;DHT22;10658;50.920;12.238;2023-02-12T19:53:27;6.20;99.90
21001;DHT22;10658;50.920;12.238;2023-02-12T19:57:28;6.20;99.90
21001;DHT22;10658;50.920;12.238;2023-02-12T20:01:29;6.20;99.90
21001;DHT22;10658;50.920;12.238;2023-02-12T20:05:32;6.10;99.90
21001;DHT22;10658;50.920;12.238;2023-02-12T20:09:33;6.10;99.90
21001;DHT22;10658;50.920;12.238;2023-02-12T20:13:35;6.10;99.90
21001;DHT22;10658;50.920;12.238;2023-02-12T20:17:36;6.10;99.90
21001;DHT22;10658;50.920;12.238;2023-02-12T20:21:38;6.10;99.90
21001;DHT22;10658;50.920;12.238;2023-02-12T20:25:45;6.10;99.90
21001;DHT22;10658;50.920;12.238;2023-02-12T20:29:50;6.00;99.90
21001;DHT22;10658;50.920;12.238;2023-02-12T20:34:00;5.90;99.90
21001;DHT22;10658;50.920;12.238;2023-02-12T20:38:03;6.00;99.90
21001;DHT22;10658;50.920;12.238;2023-02-12T20:42:04;6.00;99.90
21001;DHT22;10658;50.920;12.238;2023-02-12T20:46:12;6.00;99.90
21001;DHT22;10658;50.920;12.238;2023-02-12T20:50:14;6.00;99.90
21001;DHT22;10658;50.920;12.238;2023-02-12T20:54:15;6.00;99.90
21001;DHT22;10658;50.920;12.238;2023-02-12T20:58:16;6.00;99.90
21001;DHT22;10658;50.920;12.238;2023-02-12T21:02:18;6.00;99.90
21001;DHT22;10658;50.920;12.238;2023-02-12T21:06:21;5.90;99.90
21001;DHT22;10658;50.920;12.238;2023-02-12T21:10:22;5.90;99.90
21001;DHT22;10658;50.920;12.238;2023-02-12T21:14:25;5.80;99.90
21001;DHT22;10658;50.920;12.238;2023-02-12T21:18:26;5.80;99.90
21001;DHT22;10658;50.920;12.238;2023-02-12T21:22:29;5.80;99.90
21001;DHT22;10658;50.920;12.238;2023-02-12T21:26:32;5.80;99.90
21001;DHT22;10658;50.920;12.238;2023-02-12T21:30:34;5.80;99.90
21001;DHT22;10658;50.920;12.238;2023-02-12T21:34:35;5.80;99.90
21001;DHT22;10658;50.920;12.238;2023-02-12T21:38:38;5.80;99.90
21001;DHT22;10658;50.920;12.238;2023-02-12T21:42:39;5.80;99.90
21001;DHT22;10658;50.920;12.238;2023-02-12T21:46:40;5.80;99.90
21001;DHT22;10658;50.920;12.238;2023-02-12T21:50:41;5.90;99.90
21001;DHT22;10658;50.920;12.238;2023-02-12T21:54:43;6.00;99.90
21001;DHT22;10658;50.920;12.238;2023-02-12T21:58:44;6.10;99.90
21001;DHT22;10658;50.920;12.238;2023-02-12T22:02:46;6.10;99.90
21001;DHT22;10658;50.920;12.238;2023-02-12T22:06:49;6.20;99.90
21001;DHT22;10658;50.920;12.238;2023-02-12T22:10:50;6.10;99.90
21001;DHT22;10658;50.920;12.238;2023-02-12T22:14:52;6.10;99.90
21001;DHT22;10658;50.920;12.238;2023-02-12T22:18:58;6.10;99.90
21001;DHT22;10658;50.920;12.238;2023-02-12T22:23:00;6.10;99.90
21001;DHT22;10658;50.920;12.238;2023-02-12T22:27:01;6.10;99.90
21001;DHT22;10658;50.920;12.238;2023-02-12T22:31:07;6.10;99.90
21001;DHT22;10658;50.920;12.238;2023-02-12T22:35:09;6.00;99.90
21001;DHT22;10658;50.920;12.238;2023-02-12T22:39:10;6.10;99.90
21001;DHT22;10658;50.920;12.238;2023-02-12T22:43:12;5.90;99.90
21001;DHT22;10658;50.920;12.238;2023-02-12T22:47:13;6.00;99.90
21001;DHT22;10658;50.920;12.238;2023-02-12T22:51:21;6.00;99.90
21001;DHT22;10658;50.920;12.238;2023-02-12T22:55:23;5.90;99.90
21001;DHT22;10658;50.920;12.238;2023-02-12T22:59:24;5.90;99.90
21001;DHT22;10658;50.920;12.238;2023-02-12T23:03:27;5.90;99.90
21001;DHT22;10658;50.920;12.238;2023-02-12T23:07:29;5.90;99.90
21001;DHT22;10658;50.920;12.238;2023-02-12T23:11:31;5.80;99.90
21001;DHT22;10658;50.920;12.238;2023-02-12T23:15:32;5.90;99.90
21001;DHT22;10658;50.920;12.238;2023-02-12T23:19:35;5.90;99.90
21001;DHT22;10658;50.920;12.238;2023-02-12T23:23:36;5.80;99.90
21001;DHT22;10658;50.920;12.238;2023-02-12T23:27:38;5.80;99.90
21001;DHT22;10658;50.920;12.238;2023-02-12T23:31:42;5.80;99.90
21001;DHT22;10658;50.920;12.238;2023-02-12T23:35:46;5.80;99.90
21001;DHT22;10658;50.920;12.238;2023-02-12T23:39:48;5.80;99.90
21001;DHT22;10658;50.920;12.238;2023-02-12T23:43:49;5.80;99.90
21001;DHT22;10658;50.920;12.238;2023-02-12T23:47:51;5.80;99.90
21001;DHT22;10658;50.920;12.238;2023-02-12T23:51:52;5.80;99.90
21001;DHT22;10658;50.920;12.238;2023-02-12T23:55:53;5.80;99.90
21001;DHT22;10658;50.920;12.238;2023-02-12T23:59:53;5.80;99.90
